sensor_id;sensor_type;location;lat;lon;timestamp;P1;durP1;ratioP1;P2;durP2;ratioP2
26574;SDS011;67165;50.256;10.978;2023-02-28T00:00:36;6.93;;;4.90;;
26574;SDS011;67165;50.256;10.978;2023-02-28T00:03:02;6.28;;;4.10;;
26574;SDS011;67165;50.256;10.978;2023-02-28T00:05:28;9.57;;;5.20;;
26574;SDS011;67165;50.256;10.978;2023-02-28T00:07:54;6.43;;;4.43;;
26574;SDS011;67165;50.256;10.978;2023-02-28T00:10:22;9.45;;;5.88;;
26574;SDS011;67165;50.256;10.978;2023-02-28T00:12:52;8.43;;;5.03;;
26574;SDS011;67165;50.256;10.978;2023-02-28T00:15:21;7.47;;;4.07;;
26574;SDS011;67165;50.256;10.978;2023-02-28T00:17:48;7.43;;;3.92;;
26574;SDS011;67165;50.256;10.978;2023-02-28T00:20:13;6.30;;;4.07;;
26574;SDS011;67165;50.256;10.978;2023-02-28T00:22:41;6.50;;;4.05;;
26574;SDS011;67165;50.256;10.978;2023-02-28T00:25:09;6.50;;;4.07;;
26574;SDS011;67165;50.256;10.978;2023-02-28T00:27:37;7.05;;;4.40;;
26574;SDS011;67165;50.256;10.978;2023-02-28T00:30:04;8.60;;;4.53;;
26574;SDS011;67165;50.256;10.978;2023-02-28T00:32:30;6.75;;;3.92;;
26574;SDS011;67165;50.256;10.978;2023-02-28T00:34:56;7.70;;;4.40;;
26574;SDS011;67165;50.256;10.978;2023-02-28T00:37:21;7.68;;;4.57;;
26574;SDS011;67165;50.256;10.978;2023-02-28T00:39:47;7.18;;;4.35;;
26574;SDS011;67165;50.256;10.978;2023-02-28T00:42:13;7.53;;;4.60;;
26574;SDS011;67165;50.256;10.978;2023-02-28T00:44:39;6.68;;;4.57;;
26574;SDS011;67165;50.256;10.978;2023-02-28T00:47:04;7.90;;;4.85;;
26574;SDS011;67165;50.256;10.978;2023-02-28T00:49:30;8.30;;;4.93;;
26574;SDS011;67165;50.256;10.978;2023-02-28T00:51:55;9.65;;;4.40;;
26574;SDS011;67165;50.256;10.978;2023-02-28T00:54:22;8.00;;;4.65;;
26574;SDS011;67165;50.256;10.978;2023-02-28T00:56:48;6.80;;;4.07;;
26574;SDS011;67165;50.256;10.978;2023-02-28T00:59:14;7.85;;;4.10;;
26574;SDS011;67165;50.256;10.978;2023-02-28T01:01:41;8.02;;;4.40;;
26574;SDS011;67165;50.256;10.978;2023-02-28T01:04:08;8.20;;;4.32;;
26574;SDS011;67165;50.256;10.978;2023-02-28T01:06:34;6.25;;;4.03;;
26574;SDS011;67165;50.256;10.978;2023-02-28T01:09:00;7.53;;;4.07;;
26574;SDS011;67165;50.256;10.978;2023-02-28T01:11:26;7.43;;;4.45;;
26574;SDS011;67165;50.256;10.978;2023-02-28T01:13:52;7.53;;;4.32;;
26574;SDS011;67165;50.256;10.978;2023-02-28T01:16:18;7.65;;;4.57;;
26574;SDS011;67165;50.256;10.978;2023-02-28T01:18:44;7.97;;;4.68;;
26574;SDS011;67165;50.256;10.978;2023-02-28T01:21:11;9.05;;;5.05;;
26574;SDS011;67165;50.256;10.978;2023-02-28T01:23:38;7.35;;;4.70;;
26574;SDS011;67165;50.256;10.978;2023-02-28T01:26:08;8.75;;;4.80;;
26574;SDS011;67165;50.256;10.978;2023-02-28T01:28:45;7.53;;;4.47;;
26574;SDS011;67165;50.256;10.978;2023-02-28T01:31:11;6.97;;;4.38;;
26574;SDS011;67165;50.256;10.978;2023-02-28T01:33:37;7.68;;;4.63;;
26574;SDS011;67165;50.256;10.978;2023-02-28T01:36:04;7.72;;;4.63;;
26574;SDS011;67165;50.256;10.978;2023-02-28T01:38:32;10.70;;;4.53;;
26574;SDS011;67165;50.256;10.978;2023-02-28T01:40:58;8.50;;;5.00;;
26574;SDS011;67165;50.256;10.978;2023-02-28T01:43:25;7.07;;;4.40;;
26574;SDS011;67165;50.256;10.978;2023-02-28T01:45:53;9.50;;;4.85;;
26574;SDS011;67165;50.256;10.978;2023-02-28T01:48:21;7.03;;;4.55;;
26574;SDS011;67165;50.256;10.978;2023-02-28T01:51:01;7.97;;;4.35;;
26574;SDS011;67165;50.256;10.978;2023-02-28T01:53:39;9.57;;;5.05;;
26574;SDS011;67165;50.256;10.978;2023-02-28T01:56:10;7.45;;;4.78;;
26574;SDS011;67165;50.256;10.978;2023-02-28T01:58:38;7.25;;;4.88;;
26574;SDS011;67165;50.256;10.978;2023-02-28T02:01:04;6.82;;;4.53;;
26574;SDS011;67165;50.256;10.978;2023-02-28T02:03:30;7.95;;;4.47;;
26574;SDS011;67165;50.256;10.978;2023-02-28T02:05:56;7.15;;;4.32;;
26574;SDS011;67165;50.256;10.978;2023-02-28T02:08:23;7.18;;;4.38;;
26574;SDS011;67165;50.256;10.978;2023-02-28T02:10:52;7.72;;;5.07;;
26574;SDS011;67165;50.256;10.978;2023-02-28T02:15:53;10.48;;;4.75;;
26574;SDS011;67165;50.256;10.978;2023-02-28T02:31:56;10.02;;;4.65;;
26574;SDS011;67165;50.256;10.978;2023-02-28T02:42:36;6.97;;;4.20;;
26574;SDS011;67165;50.256;10.978;2023-02-28T02:48:01;7.35;;;4.15;;
26574;SDS011;67165;50.256;10.978;2023-02-28T02:50:31;5.60;;;3.50;;
26574;SDS011;67165;50.256;10.978;2023-02-28T02:53:07;6.47;;;3.80;;
26574;SDS011;67165;50.256;10.978;2023-02-28T02:55:37;7.07;;;4.00;;
26574;SDS011;67165;50.256;10.978;2023-02-28T02:58:08;6.18;;;3.63;;
26574;SDS011;67165;50.256;10.978;2023-02-28T03:00:41;6.85;;;3.75;;
26574;SDS011;67165;50.256;10.978;2023-02-28T03:03:09;5.85;;;3.63;;
26574;SDS011;67165;50.256;10.978;2023-02-28T03:05:49;5.70;;;3.78;;
26574;SDS011;67165;50.256;10.978;2023-02-28T03:08:16;5.70;;;3.63;;
26574;SDS011;67165;50.256;10.978;2023-02-28T03:10:43;6.95;;;3.80;;
26574;SDS011;67165;50.256;10.978;2023-02-28T03:26:36;6.20;;;3.67;;
26574;SDS011;67165;50.256;10.978;2023-02-28T03:29:12;6.65;;;3.70;;
26574;SDS011;67165;50.256;10.978;2023-02-28T03:36:53;4.97;;;3.25;;
26574;SDS011;67165;50.256;10.978;2023-02-28T03:39:24;6.35;;;3.83;;
26574;SDS011;67165;50.256;10.978;2023-02-28T03:42:00;8.10;;;3.60;;
26574;SDS011;67165;50.256;10.978;2023-02-28T03:44:32;4.68;;;3.08;;
26574;SDS011;67165;50.256;10.978;2023-02-28T03:47:03;6.07;;;3.25;;
26574;SDS011;67165;50.256;10.978;2023-02-28T03:52:53;6.40;;;3.45;;
26574;SDS011;67165;50.256;10.978;2023-02-28T03:55:26;6.68;;;3.40;;
26574;SDS011;67165;50.256;10.978;2023-02-28T03:58:01;6.90;;;3.75;;
26574;SDS011;67165;50.256;10.978;2023-02-28T04:00:48;6.15;;;3.58;;
26574;SDS011;67165;50.256;10.978;2023-02-28T04:03:20;5.73;;;3.27;;
26574;SDS011;67165;50.256;10.978;2023-02-28T04:05:50;7.63;;;3.85;;
26574;SDS011;67165;50.256;10.978;2023-02-28T04:08:18;7.15;;;3.65;;
26574;SDS011;67165;50.256;10.978;2023-02-28T04:10:44;7.30;;;3.97;;
26574;SDS011;67165;50.256;10.978;2023-02-28T04:13:16;5.30;;;3.60;;
26574;SDS011;67165;50.256;10.978;2023-02-28T04:15:41;5.93;;;3.58;;
26574;SDS011;67165;50.256;10.978;2023-02-28T04:18:07;7.28;;;4.43;;
26574;SDS011;67165;50.256;10.978;2023-02-28T04:20:33;6.03;;;4.05;;
26574;SDS011;67165;50.256;10.978;2023-02-28T04:22:58;7.45;;;4.70;;
26574;SDS011;67165;50.256;10.978;2023-02-28T04:25:24;7.65;;;4.60;;
26574;SDS011;67165;50.256;10.978;2023-02-28T04:27:50;8.40;;;4.70;;
26574;SDS011;67165;50.256;10.978;2023-02-28T04:30:15;6.68;;;4.50;;
26574;SDS011;67165;50.256;10.978;2023-02-28T04:32:41;6.47;;;4.40;;
26574;SDS011;67165;50.256;10.978;2023-02-28T04:35:07;7.20;;;4.18;;
26574;SDS011;67165;50.256;10.978;2023-02-28T04:37:33;8.90;;;5.00;;
26574;SDS011;67165;50.256;10.978;2023-02-28T04:40:00;10.18;;;4.90;;
26574;SDS011;67165;50.256;10.978;2023-02-28T04:42:27;8.90;;;4.80;;
26574;SDS011;67165;50.256;10.978;2023-02-28T04:45:00;8.65;;;5.05;;
26574;SDS011;67165;50.256;10.978;2023-02-28T04:47:26;9.13;;;5.18;;
26574;SDS011;67165;50.256;10.978;2023-02-28T04:49:52;8.85;;;5.13;;
26574;SDS011;67165;50.256;10.978;2023-02-28T04:52:17;9.65;;;4.90;;
26574;SDS011;67165;50.256;10.978;2023-02-28T04:54:43;10.95;;;5.60;;
26574;SDS011;67165;50.256;10.978;2023-02-28T04:57:09;8.70;;;5.43;;
26574;SDS011;67165;50.256;10.978;2023-02-28T04:59:34;10.98;;;5.68;;
26574;SDS011;67165;50.256;10.978;2023-02-28T05:02:00;8.70;;;5.25;;
26574;SDS011;67165;50.256;10.978;2023-02-28T05:04:31;9.77;;;5.85;;
26574;SDS011;67165;50.256;10.978;2023-02-28T05:07:00;9.77;;;5.32;;
26574;SDS011;67165;50.256;10.978;2023-02-28T05:09:28;12.73;;;5.55;;
26574;SDS011;67165;50.256;10.978;2023-02-28T05:11:53;10.55;;;5.53;;
26574;SDS011;67165;50.256;10.978;2023-02-28T05:14:19;8.73;;;5.50;;
26574;SDS011;67165;50.256;10.978;2023-02-28T05:16:45;8.82;;;5.60;;
26574;SDS011;67165;50.256;10.978;2023-02-28T05:19:11;11.45;;;6.45;;
26574;SDS011;67165;50.256;10.978;2023-02-28T05:21:40;9.95;;;5.97;;
26574;SDS011;67165;50.256;10.978;2023-02-28T05:24:12;10.68;;;6.22;;
26574;SDS011;67165;50.256;10.978;2023-02-28T05:26:41;12.38;;;6.25;;
26574;SDS011;67165;50.256;10.978;2023-02-28T05:29:08;11.88;;;6.38;;
26574;SDS011;67165;50.256;10.978;2023-02-28T05:31:34;12.02;;;6.25;;
26574;SDS011;67165;50.256;10.978;2023-02-28T05:34:00;11.57;;;6.82;;
26574;SDS011;67165;50.256;10.978;2023-02-28T05:36:26;13.45;;;6.90;;
26574;SDS011;67165;50.256;10.978;2023-02-28T05:38:52;12.52;;;7.28;;
26574;SDS011;67165;50.256;10.978;2023-02-28T05:41:17;12.35;;;6.88;;
26574;SDS011;67165;50.256;10.978;2023-02-28T05:43:45;10.82;;;6.90;;
26574;SDS011;67165;50.256;10.978;2023-02-28T05:46:11;13.10;;;7.80;;
26574;SDS011;67165;50.256;10.978;2023-02-28T05:48:38;15.68;;;7.30;;
26574;SDS011;67165;50.256;10.978;2023-02-28T05:51:05;12.40;;;7.35;;
26574;SDS011;67165;50.256;10.978;2023-02-28T05:53:32;15.38;;;8.07;;
26574;SDS011;67165;50.256;10.978;2023-02-28T05:55:58;13.80;;;8.02;;
26574;SDS011;67165;50.256;10.978;2023-02-28T05:58:24;15.55;;;7.90;;
26574;SDS011;67165;50.256;10.978;2023-02-28T06:00:55;15.10;;;8.18;;
26574;SDS011;67165;50.256;10.978;2023-02-28T06:03:26;16.65;;;8.60;;
26574;SDS011;67165;50.256;10.978;2023-02-28T06:05:52;12.90;;;8.20;;
26574;SDS011;67165;50.256;10.978;2023-02-28T06:08:17;14.52;;;8.60;;
26574;SDS011;67165;50.256;10.978;2023-02-28T06:10:43;15.07;;;9.02;;
26574;SDS011;67165;50.256;10.978;2023-02-28T06:13:10;14.07;;;8.52;;
26574;SDS011;67165;50.256;10.978;2023-02-28T06:15:36;15.65;;;9.77;;
26574;SDS011;67165;50.256;10.978;2023-02-28T06:18:02;16.83;;;9.25;;
26574;SDS011;67165;50.256;10.978;2023-02-28T06:20:28;19.10;;;9.63;;
26574;SDS011;67165;50.256;10.978;2023-02-28T06:22:55;17.63;;;9.38;;
26574;SDS011;67165;50.256;10.978;2023-02-28T06:25:23;14.02;;;8.98;;
26574;SDS011;67165;50.256;10.978;2023-02-28T06:27:49;17.60;;;9.90;;
26574;SDS011;67165;50.256;10.978;2023-02-28T06:30:15;17.80;;;9.45;;
26574;SDS011;67165;50.256;10.978;2023-02-28T06:32:41;16.98;;;9.70;;
26574;SDS011;67165;50.256;10.978;2023-02-28T06:35:07;19.20;;;9.82;;
26574;SDS011;67165;50.256;10.978;2023-02-28T06:37:33;20.25;;;10.48;;
26574;SDS011;67165;50.256;10.978;2023-02-28T06:39:58;16.88;;;9.52;;
26574;SDS011;67165;50.256;10.978;2023-02-28T06:42:24;17.73;;;10.48;;
26574;SDS011;67165;50.256;10.978;2023-02-28T06:44:54;16.23;;;9.70;;
26574;SDS011;67165;50.256;10.978;2023-02-28T06:47:20;18.20;;;9.80;;
26574;SDS011;67165;50.256;10.978;2023-02-28T06:49:46;19.20;;;10.57;;
26574;SDS011;67165;50.256;10.978;2023-02-28T06:52:12;17.98;;;10.23;;
26574;SDS011;67165;50.256;10.978;2023-02-28T06:54:38;19.08;;;10.18;;
26574;SDS011;67165;50.256;10.978;2023-02-28T06:57:03;17.63;;;10.52;;
26574;SDS011;67165;50.256;10.978;2023-02-28T06:59:29;19.67;;;11.10;;
26574;SDS011;67165;50.256;10.978;2023-02-28T07:01:55;18.20;;;11.18;;
26574;SDS011;67165;50.256;10.978;2023-02-28T07:04:21;22.38;;;11.15;;
26574;SDS011;67165;50.256;10.978;2023-02-28T07:06:47;20.52;;;11.02;;
26574;SDS011;67165;50.256;10.978;2023-02-28T07:09:12;18.80;;;10.40;;
26574;SDS011;67165;50.256;10.978;2023-02-28T07:11:39;18.52;;;10.48;;
26574;SDS011;67165;50.256;10.978;2023-02-28T07:14:05;20.00;;;10.57;;
26574;SDS011;67165;50.256;10.978;2023-02-28T07:16:32;18.40;;;11.02;;
26574;SDS011;67165;50.256;10.978;2023-02-28T07:18:58;18.98;;;10.85;;
26574;SDS011;67165;50.256;10.978;2023-02-28T07:21:24;19.20;;;10.77;;
26574;SDS011;67165;50.256;10.978;2023-02-28T07:23:50;18.50;;;10.07;;
26574;SDS011;67165;50.256;10.978;2023-02-28T07:26:17;18.80;;;9.98;;
26574;SDS011;67165;50.256;10.978;2023-02-28T07:28:44;18.38;;;10.73;;
26574;SDS011;67165;50.256;10.978;2023-02-28T07:31:11;16.95;;;9.85;;
26574;SDS011;67165;50.256;10.978;2023-02-28T07:33:38;17.98;;;10.30;;
26574;SDS011;67165;50.256;10.978;2023-02-28T07:36:05;19.58;;;10.15;;
26574;SDS011;67165;50.256;10.978;2023-02-28T07:38:36;16.40;;;9.80;;
26574;SDS011;67165;50.256;10.978;2023-02-28T07:41:02;20.65;;;10.73;;
26574;SDS011;67165;50.256;10.978;2023-02-28T07:43:33;16.98;;;10.05;;
26574;SDS011;67165;50.256;10.978;2023-02-28T07:46:03;19.48;;;11.07;;
26574;SDS011;67165;50.256;10.978;2023-02-28T07:48:34;20.33;;;10.73;;
26574;SDS011;67165;50.256;10.978;2023-02-28T07:50:59;25.23;;;12.43;;
26574;SDS011;67165;50.256;10.978;2023-02-28T07:53:26;19.65;;;10.55;;
26574;SDS011;67165;50.256;10.978;2023-02-28T07:55:56;22.58;;;10.70;;
26574;SDS011;67165;50.256;10.978;2023-02-28T07:58:23;18.40;;;9.88;;
26574;SDS011;67165;50.256;10.978;2023-02-28T08:00:50;16.65;;;9.55;;
26574;SDS011;67165;50.256;10.978;2023-02-28T08:03:17;18.88;;;10.25;;
26574;SDS011;67165;50.256;10.978;2023-02-28T08:05:44;16.52;;;9.73;;
26574;SDS011;67165;50.256;10.978;2023-02-28T08:08:10;15.85;;;9.55;;
26574;SDS011;67165;50.256;10.978;2023-02-28T08:10:36;16.23;;;9.43;;
26574;SDS011;67165;50.256;10.978;2023-02-28T08:13:02;15.48;;;9.55;;
26574;SDS011;67165;50.256;10.978;2023-02-28T08:15:28;18.40;;;9.45;;
26574;SDS011;67165;50.256;10.978;2023-02-28T08:17:54;16.98;;;9.23;;
26574;SDS011;67165;50.256;10.978;2023-02-28T08:20:21;13.13;;;8.38;;
26574;SDS011;67165;50.256;10.978;2023-02-28T08:22:47;16.45;;;8.00;;
26574;SDS011;67165;50.256;10.978;2023-02-28T08:25:13;16.27;;;8.30;;
26574;SDS011;67165;50.256;10.978;2023-02-28T08:27:39;17.13;;;8.55;;
26574;SDS011;67165;50.256;10.978;2023-02-28T08:30:05;13.70;;;8.02;;
26574;SDS011;67165;50.256;10.978;2023-02-28T08:32:32;13.27;;;7.47;;
26574;SDS011;67165;50.256;10.978;2023-02-28T08:34:58;10.90;;;7.75;;
26574;SDS011;67165;50.256;10.978;2023-02-28T08:37:24;15.73;;;8.23;;
26574;SDS011;67165;50.256;10.978;2023-02-28T08:39:50;15.10;;;7.90;;
26574;SDS011;67165;50.256;10.978;2023-02-28T08:42:16;12.88;;;7.55;;
26574;SDS011;67165;50.256;10.978;2023-02-28T08:44:41;13.05;;;6.88;;
26574;SDS011;67165;50.256;10.978;2023-02-28T08:47:07;10.30;;;7.03;;
26574;SDS011;67165;50.256;10.978;2023-02-28T08:49:32;12.80;;;6.78;;
26574;SDS011;67165;50.256;10.978;2023-02-28T08:51:58;10.60;;;6.50;;
26574;SDS011;67165;50.256;10.978;2023-02-28T08:54:24;9.98;;;5.72;;
26574;SDS011;67165;50.256;10.978;2023-02-28T08:56:50;11.63;;;6.50;;
26574;SDS011;67165;50.256;10.978;2023-02-28T08:59:15;11.93;;;6.30;;
26574;SDS011;67165;50.256;10.978;2023-02-28T09:01:41;11.23;;;5.75;;
26574;SDS011;67165;50.256;10.978;2023-02-28T09:04:08;12.13;;;7.00;;
26574;SDS011;67165;50.256;10.978;2023-02-28T09:06:36;9.90;;;6.43;;
26574;SDS011;67165;50.256;10.978;2023-02-28T09:09:02;9.50;;;6.10;;
26574;SDS011;67165;50.256;10.978;2023-02-28T09:11:30;10.65;;;6.47;;
26574;SDS011;67165;50.256;10.978;2023-02-28T09:13:57;19.00;;;8.57;;
26574;SDS011;67165;50.256;10.978;2023-02-28T09:16:24;11.18;;;6.55;;
26574;SDS011;67165;50.256;10.978;2023-02-28T09:18:49;11.23;;;6.72;;
26574;SDS011;67165;50.256;10.978;2023-02-28T09:21:16;11.32;;;6.88;;
26574;SDS011;67165;50.256;10.978;2023-02-28T09:23:43;14.48;;;7.15;;
26574;SDS011;67165;50.256;10.978;2023-02-28T09:26:14;12.15;;;7.13;;
26574;SDS011;67165;50.256;10.978;2023-02-28T09:28:41;11.68;;;6.20;;
26574;SDS011;67165;50.256;10.978;2023-02-28T09:31:10;9.18;;;5.70;;
26574;SDS011;67165;50.256;10.978;2023-02-28T09:33:38;15.60;;;6.20;;
26574;SDS011;67165;50.256;10.978;2023-02-28T09:36:04;9.00;;;5.60;;
26574;SDS011;67165;50.256;10.978;2023-02-28T09:38:30;9.75;;;5.38;;
26574;SDS011;67165;50.256;10.978;2023-02-28T09:40:59;8.57;;;5.55;;
26574;SDS011;67165;50.256;10.978;2023-02-28T09:43:30;7.13;;;4.80;;
26574;SDS011;67165;50.256;10.978;2023-02-28T09:48:45;10.82;;;5.03;;
26574;SDS011;67165;50.256;10.978;2023-02-28T09:53:38;8.10;;;4.95;;
26574;SDS011;67165;50.256;10.978;2023-02-28T09:56:08;8.38;;;4.45;;
26574;SDS011;67165;50.256;10.978;2023-02-28T10:01:50;10.63;;;5.25;;
26574;SDS011;67165;50.256;10.978;2023-02-28T10:07:11;14.02;;;5.35;;
26574;SDS011;67165;50.256;10.978;2023-02-28T10:09:44;7.45;;;4.40;;
26574;SDS011;67165;50.256;10.978;2023-02-28T10:12:12;16.67;;;5.88;;
26574;SDS011;67165;50.256;10.978;2023-02-28T10:14:40;8.73;;;4.95;;
26574;SDS011;67165;50.256;10.978;2023-02-28T10:17:11;13.07;;;5.10;;
26574;SDS011;67165;50.256;10.978;2023-02-28T10:22:53;10.57;;;5.20;;
26574;SDS011;67165;50.256;10.978;2023-02-28T10:25:32;7.47;;;4.40;;
26574;SDS011;67165;50.256;10.978;2023-02-28T10:28:04;7.93;;;4.70;;
26574;SDS011;67165;50.256;10.978;2023-02-28T10:30:34;7.32;;;4.18;;
26574;SDS011;67165;50.256;10.978;2023-02-28T10:33:01;7.40;;;4.13;;
26574;SDS011;67165;50.256;10.978;2023-02-28T10:35:28;7.38;;;4.78;;
26574;SDS011;67165;50.256;10.978;2023-02-28T10:37:57;11.52;;;4.90;;
26574;SDS011;67165;50.256;10.978;2023-02-28T10:43:03;14.40;;;4.70;;
26574;SDS011;67165;50.256;10.978;2023-02-28T10:45:32;10.35;;;4.72;;
26574;SDS011;67165;50.256;10.978;2023-02-28T10:48:05;7.43;;;4.32;;
26574;SDS011;67165;50.256;10.978;2023-02-28T10:50:51;13.75;;;4.88;;
26574;SDS011;67165;50.256;10.978;2023-02-28T10:56:01;9.18;;;4.80;;
26574;SDS011;67165;50.256;10.978;2023-02-28T10:58:31;8.27;;;5.18;;
26574;SDS011;67165;50.256;10.978;2023-02-28T11:01:23;9.15;;;4.88;;
26574;SDS011;67165;50.256;10.978;2023-02-28T11:04:02;7.88;;;4.75;;
26574;SDS011;67165;50.256;10.978;2023-02-28T11:06:32;10.07;;;5.45;;
26574;SDS011;67165;50.256;10.978;2023-02-28T11:09:06;10.85;;;5.50;;
26574;SDS011;67165;50.256;10.978;2023-02-28T11:11:47;8.45;;;4.95;;
26574;SDS011;67165;50.256;10.978;2023-02-28T11:14:21;11.93;;;5.32;;
26574;SDS011;67165;50.256;10.978;2023-02-28T11:16:50;12.05;;;5.18;;
26574;SDS011;67165;50.256;10.978;2023-02-28T11:19:19;8.48;;;5.20;;
26574;SDS011;67165;50.256;10.978;2023-02-28T11:21:59;9.27;;;5.55;;
26574;SDS011;67165;50.256;10.978;2023-02-28T11:24:28;10.52;;;5.13;;
26574;SDS011;67165;50.256;10.978;2023-02-28T11:26:58;9.93;;;5.05;;
26574;SDS011;67165;50.256;10.978;2023-02-28T11:32:05;8.52;;;5.25;;
26574;SDS011;67165;50.256;10.978;2023-02-28T11:34:37;9.85;;;5.45;;
26574;SDS011;67165;50.256;10.978;2023-02-28T11:37:05;7.82;;;4.93;;
26574;SDS011;67165;50.256;10.978;2023-02-28T11:39:36;10.20;;;5.70;;
26574;SDS011;67165;50.256;10.978;2023-02-28T11:42:16;9.27;;;5.40;;
26574;SDS011;67165;50.256;10.978;2023-02-28T11:45:18;11.52;;;5.65;;
26574;SDS011;67165;50.256;10.978;2023-02-28T11:50:53;11.38;;;5.22;;
26574;SDS011;67165;50.256;10.978;2023-02-28T11:56:09;10.25;;;5.15;;
26574;SDS011;67165;50.256;10.978;2023-02-28T11:58:53;17.55;;;5.97;;
26574;SDS011;67165;50.256;10.978;2023-02-28T12:01:46;10.50;;;5.78;;
26574;SDS011;67165;50.256;10.978;2023-02-28T12:04:18;9.02;;;4.95;;
26574;SDS011;67165;50.256;10.978;2023-02-28T12:07:14;12.80;;;5.90;;
26574;SDS011;67165;50.256;10.978;2023-02-28T12:15:16;18.00;;;7.95;;
26574;SDS011;67165;50.256;10.978;2023-02-28T12:20:37;13.25;;;6.90;;
26574;SDS011;67165;50.256;10.978;2023-02-28T12:26:07;12.30;;;6.15;;
26574;SDS011;67165;50.256;10.978;2023-02-28T12:29:16;10.10;;;5.93;;
26574;SDS011;67165;50.256;10.978;2023-02-28T12:31:46;11.40;;;5.82;;
26574;SDS011;67165;50.256;10.978;2023-02-28T12:34:18;12.93;;;6.82;;
26574;SDS011;67165;50.256;10.978;2023-02-28T12:36:48;11.70;;;6.32;;
26574;SDS011;67165;50.256;10.978;2023-02-28T12:39:18;11.45;;;6.28;;
26574;SDS011;67165;50.256;10.978;2023-02-28T12:41:53;11.77;;;5.57;;
26574;SDS011;67165;50.256;10.978;2023-02-28T12:46:54;10.68;;;5.63;;
26574;SDS011;67165;50.256;10.978;2023-02-28T12:49:25;10.43;;;6.00;;
26574;SDS011;67165;50.256;10.978;2023-02-28T12:52:17;8.45;;;5.35;;
26574;SDS011;67165;50.256;10.978;2023-02-28T12:54:52;11.10;;;5.82;;
26574;SDS011;67165;50.256;10.978;2023-02-28T12:57:33;10.43;;;5.55;;
26574;SDS011;67165;50.256;10.978;2023-02-28T13:00:04;10.57;;;5.72;;
26574;SDS011;67165;50.256;10.978;2023-02-28T13:05:26;10.85;;;5.95;;
26574;SDS011;67165;50.256;10.978;2023-02-28T13:08:04;10.10;;;6.25;;
26574;SDS011;67165;50.256;10.978;2023-02-28T13:13:25;11.73;;;6.22;;
26574;SDS011;67165;50.256;10.978;2023-02-28T13:16:08;13.00;;;6.40;;
26574;SDS011;67165;50.256;10.978;2023-02-28T13:18:38;18.10;;;6.32;;
26574;SDS011;67165;50.256;10.978;2023-02-28T13:21:29;11.65;;;6.20;;
26574;SDS011;67165;50.256;10.978;2023-02-28T13:29:02;10.30;;;6.32;;
26574;SDS011;67165;50.256;10.978;2023-02-28T13:34:34;13.23;;;6.60;;
26574;SDS011;67165;50.256;10.978;2023-02-28T13:47:33;11.55;;;5.97;;
26574;SDS011;67165;50.256;10.978;2023-02-28T14:01:11;10.73;;;6.55;;
26574;SDS011;67165;50.256;10.978;2023-02-28T14:06:35;14.48;;;6.82;;
26574;SDS011;67165;50.256;10.978;2023-02-28T14:15:27;11.05;;;6.95;;
26574;SDS011;67165;50.256;10.978;2023-02-28T14:18:20;11.93;;;6.60;;
26574;SDS011;67165;50.256;10.978;2023-02-28T14:20:47;12.77;;;6.80;;
26574;SDS011;67165;50.256;10.978;2023-02-28T14:23:20;10.32;;;6.25;;
26574;SDS011;67165;50.256;10.978;2023-02-28T14:26:00;10.52;;;6.75;;
26574;SDS011;67165;50.256;10.978;2023-02-28T14:28:45;11.63;;;6.95;;
26574;SDS011;67165;50.256;10.978;2023-02-28T14:31:29;14.60;;;6.95;;
26574;SDS011;67165;50.256;10.978;2023-02-28T14:36:49;12.68;;;6.82;;
26574;SDS011;67165;50.256;10.978;2023-02-28T14:39:19;10.65;;;6.78;;
26574;SDS011;67165;50.256;10.978;2023-02-28T14:41:47;9.38;;;6.65;;
26574;SDS011;67165;50.256;10.978;2023-02-28T14:44:20;9.95;;;6.55;;
26574;SDS011;67165;50.256;10.978;2023-02-28T14:46:50;12.07;;;6.70;;
26574;SDS011;67165;50.256;10.978;2023-02-28T14:49:21;12.07;;;7.55;;
26574;SDS011;67165;50.256;10.978;2023-02-28T14:52:29;12.45;;;6.95;;
26574;SDS011;67165;50.256;10.978;2023-02-28T14:55:05;12.32;;;7.30;;
26574;SDS011;67165;50.256;10.978;2023-02-28T14:57:41;12.13;;;7.32;;
26574;SDS011;67165;50.256;10.978;2023-02-28T15:00:21;12.52;;;7.15;;
26574;SDS011;67165;50.256;10.978;2023-02-28T15:02:49;12.40;;;7.15;;
26574;SDS011;67165;50.256;10.978;2023-02-28T15:05:19;10.88;;;7.03;;
26574;SDS011;67165;50.256;10.978;2023-02-28T15:08:03;12.95;;;7.18;;
26574;SDS011;67165;50.256;10.978;2023-02-28T15:10:58;11.63;;;6.68;;
26574;SDS011;67165;50.256;10.978;2023-02-28T15:13:31;12.75;;;6.45;;
26574;SDS011;67165;50.256;10.978;2023-02-28T15:19:00;12.20;;;7.05;;
26574;SDS011;67165;50.256;10.978;2023-02-28T15:21:36;10.93;;;6.60;;
26574;SDS011;67165;50.256;10.978;2023-02-28T15:24:30;10.90;;;7.38;;
26574;SDS011;67165;50.256;10.978;2023-02-28T15:26:57;11.40;;;6.68;;
26574;SDS011;67165;50.256;10.978;2023-02-28T15:29:34;14.52;;;7.68;;
26574;SDS011;67165;50.256;10.978;2023-02-28T15:32:16;10.88;;;7.03;;
26574;SDS011;67165;50.256;10.978;2023-02-28T15:34:50;11.27;;;7.20;;
26574;SDS011;67165;50.256;10.978;2023-02-28T15:45:37;11.82;;;7.45;;
26574;SDS011;67165;50.256;10.978;2023-02-28T15:48:13;10.48;;;7.20;;
26574;SDS011;67165;50.256;10.978;2023-02-28T15:50:52;14.98;;;7.47;;
26574;SDS011;67165;50.256;10.978;2023-02-28T15:53:22;10.10;;;6.72;;
26574;SDS011;67165;50.256;10.978;2023-02-28T15:55:55;13.00;;;7.70;;
26574;SDS011;67165;50.256;10.978;2023-02-28T15:58:27;14.32;;;7.15;;
26574;SDS011;67165;50.256;10.978;2023-02-28T16:01:00;11.25;;;7.63;;
26574;SDS011;67165;50.256;10.978;2023-02-28T16:03:41;14.25;;;7.40;;
26574;SDS011;67165;50.256;10.978;2023-02-28T16:08:48;13.23;;;7.50;;
26574;SDS011;67165;50.256;10.978;2023-02-28T16:11:16;14.25;;;7.97;;
26574;SDS011;67165;50.256;10.978;2023-02-28T16:13:42;13.43;;;7.80;;
26574;SDS011;67165;50.256;10.978;2023-02-28T16:16:08;10.93;;;7.13;;
26574;SDS011;67165;50.256;10.978;2023-02-28T16:18:39;11.52;;;7.63;;
26574;SDS011;67165;50.256;10.978;2023-02-28T16:21:05;14.95;;;7.90;;
26574;SDS011;67165;50.256;10.978;2023-02-28T16:23:30;13.15;;;7.72;;
26574;SDS011;67165;50.256;10.978;2023-02-28T16:25:56;13.60;;;7.53;;
26574;SDS011;67165;50.256;10.978;2023-02-28T16:28:27;13.05;;;7.90;;
26574;SDS011;67165;50.256;10.978;2023-02-28T16:30:57;12.50;;;7.95;;
26574;SDS011;67165;50.256;10.978;2023-02-28T16:33:24;15.60;;;7.72;;
26574;SDS011;67165;50.256;10.978;2023-02-28T16:35:50;12.25;;;7.88;;
26574;SDS011;67165;50.256;10.978;2023-02-28T16:38:17;13.98;;;7.68;;
26574;SDS011;67165;50.256;10.978;2023-02-28T16:40:42;14.32;;;8.55;;
26574;SDS011;67165;50.256;10.978;2023-02-28T16:43:16;18.33;;;9.30;;
26574;SDS011;67165;50.256;10.978;2023-02-28T16:45:46;13.55;;;8.10;;
26574;SDS011;67165;50.256;10.978;2023-02-28T16:48:12;19.67;;;8.32;;
26574;SDS011;67165;50.256;10.978;2023-02-28T16:50:40;14.45;;;8.40;;
26574;SDS011;67165;50.256;10.978;2023-02-28T16:53:06;14.20;;;8.65;;
26574;SDS011;67165;50.256;10.978;2023-02-28T16:55:31;13.02;;;8.35;;
26574;SDS011;67165;50.256;10.978;2023-02-28T16:57:58;17.42;;;8.70;;
26574;SDS011;67165;50.256;10.978;2023-02-28T17:00:26;18.20;;;9.18;;
26574;SDS011;67165;50.256;10.978;2023-02-28T17:02:53;15.90;;;9.82;;
26574;SDS011;67165;50.256;10.978;2023-02-28T17:05:19;14.57;;;8.60;;
26574;SDS011;67165;50.256;10.978;2023-02-28T17:07:46;17.88;;;10.73;;
26574;SDS011;67165;50.256;10.978;2023-02-28T17:10:15;20.38;;;10.02;;
26574;SDS011;67165;50.256;10.978;2023-02-28T17:12:48;18.58;;;10.45;;